Time;durP1;ratioP1;P1;durP2;ratioP2;P2;SDS_P1;SDS_P2;PMS_P1;PMS_P2;Temp;Humidity;BMP_temperature;BMP_pressure;BME280_temperature;BME280_humidity;BME280_pressure;Samples;Min_cycle;Max_cycle;Signal;HPM_P1;HPM_P2
2022/06/16 00:00:39;;;;;;;6.57;3.22;;;12.90;99.90;;;;;;5089581;28;20044;-59
2022/06/16 00:03:08;;;;;;;6.97;2.75;;;12.80;99.90;;;;;;5105455;28;20390;-60
2022/06/16 00:05:39;;;;;;;5.40;2.97;;;12.80;99.90;;;;;;5106658;28;20035;-59
2022/06/16 00:08:08;;;;;;;4.25;2.55;;;12.70;99.90;;;;;;5107817;28;20430;-58
2022/06/16 00:10:37;;;;;;;5.60;3.42;;;12.70;99.90;;;;;;5091181;28;20044;-57
2022/06/16 00:13:05;;;;;;;7.45;3.28;;;12.60;99.90;;;;;;5102959;28;20055;-57
2022/06/16 00:15:32;;;;;;;6.32;3.00;;;12.50;99.90;;;;;;5107014;28;20040;-58
2022/06/16 00:18:00;;;;;;;8.18;3.55;;;12.50;99.90;;;;;;5106243;28;20047;-59
2022/06/16 00:20:28;;;;;;;9.00;3.65;;;12.50;99.90;;;;;;5108828;28;20039;-58
2022/06/16 00:22:56;;;;;;;5.43;3.10;;;12.50;99.90;;;;;;5110219;28;20039;-57
2022/06/16 00:25:23;;;;;;;9.82;3.25;;;12.50;99.90;;;;;;5100469;28;20055;-58
2022/06/16 00:27:51;;;;;;;12.35;3.72;;;12.40;99.90;;;;;;5109066;28;20040;-57
2022/06/16 00:30:19;;;;;;;6.82;4.03;;;12.40;99.90;;;;;;5112093;28;20475;-56
2022/06/16 00:32:47;;;;;;;6.72;3.33;;;12.30;99.90;;;;;;5110688;28;20046;-57
2022/06/16 00:35:14;;;;;;;6.93;3.33;;;12.30;99.90;;;;;;5112904;28;20039;-58
2022/06/16 00:37:42;;;;;;;9.38;4.15;;;12.30;99.90;;;;;;5111968;28;20047;-58
2022/06/16 00:40:10;;;;;;;6.25;3.53;;;12.30;99.90;;;;;;5093356;28;20046;-59
2022/06/16 00:42:38;;;;;;;10.43;4.00;;;12.20;99.90;;;;;;5111669;28;20043;-59
2022/06/16 00:45:42;;;;;;;6.18;3.25;;;12.30;99.90;;;;;;5110612;28;20035;-59
2022/06/16 00:48:35;;;;;;;7.00;4.35;;;12.30;99.90;;;;;;5097365;28;20510;-57
2022/06/16 00:51:31;;;;;;;8.27;3.65;;;12.20;99.90;;;;;;5091096;28;20052;-57
2022/06/16 00:54:04;;;;;;;5.63;3.10;;;12.20;99.90;;;;;;5101949;28;20402;-57
2022/06/16 00:56:32;;;;;;;11.77;3.83;;;12.10;99.90;;;;;;5106187;28;20052;-57
2022/06/16 00:59:03;;;;;;;7.13;3.10;;;12.10;99.90;;;;;;5099920;28;20479;-57
2022/06/16 01:01:33;;;;;;;9.82;3.13;;;12.10;99.90;;;;;;5073224;28;20071;-57
2022/06/16 01:06:47;;;;;;;6.38;3.55;;;12.00;99.90;;;;;;5105288;28;20044;-57
2022/06/16 01:09:20;;;;;;;7.63;3.50;;;12.00;99.90;;;;;;5096757;28;20663;-57
2022/06/16 01:15:20;;;;;;;8.43;3.70;;;11.90;99.90;;;;;;5110925;28;20407;-58
2022/06/16 01:17:48;;;;;;;3.97;2.88;;;11.90;99.90;;;;;;5093730;28;20051;-57
2022/06/16 01:20:31;;;;;;;5.05;2.92;;;11.90;99.90;;;;;;5091688;28;20471;-57
2022/06/16 01:23:11;;;;;;;6.47;3.83;;;11.80;99.90;;;;;;5103349;28;20051;-57
2022/06/16 01:26:02;;;;;;;7.90;2.97;;;11.80;99.90;;;;;;5099473;28;20055;-57
2022/06/16 01:28:48;;;;;;;9.93;3.67;;;11.70;99.90;;;;;;5101987;28;20300;-57
2022/06/16 01:31:32;;;;;;;6.80;3.53;;;11.70;99.90;;;;;;5105918;28;20068;-57
2022/06/16 01:34:05;;;;;;;9.77;3.30;;;11.70;99.90;;;;;;5112244;28;20050;-57
2022/06/16 01:36:45;;;;;;;10.30;4.07;;;11.60;99.90;;;;;;5112293;28;20047;-55
2022/06/16 01:39:40;;;;;;;6.97;3.80;;;11.60;99.90;;;;;;5102592;28;20051;-57
2022/06/16 01:42:23;;;;;;;8.50;4.35;;;11.60;99.90;;;;;;5091852;28;20464;-57
2022/06/16 01:45:12;;;;;;;7.43;4.10;;;11.50;99.90;;;;;;5092954;28;20048;-57
2022/06/16 01:47:46;;;;;;;8.38;4.25;;;11.50;99.90;;;;;;5121209;27;20040;-55
2022/06/16 01:50:20;;;;;;;8.48;4.50;;;11.50;99.90;;;;;;5111078;28;20055;-57
2022/06/16 01:52:55;;;;;;;9.27;4.97;;;11.50;99.90;;;;;;5093755;28;20047;-57
2022/06/16 01:55:36;;;;;;;6.57;4.03;;;11.50;99.90;;;;;;5112511;28;20510;-56
2022/06/16 01:58:12;;;;;;;6.70;4.20;;;11.50;99.90;;;;;;5109644;28;20390;-55
2022/06/16 02:00:43;;;;;;;6.18;4.05;;;11.50;99.90;;;;;;5091480;28;20036;-57
2022/06/16 02:03:24;;;;;;;8.35;4.63;;;11.50;99.90;;;;;;5105425;28;20055;-57
2022/06/16 02:06:23;;;;;;;8.05;4.68;;;11.50;99.90;;;;;;5110907;28;20044;-57
2022/06/16 02:08:57;;;;;;;8.93;4.28;;;11.50;99.90;;;;;;5102064;28;20055;-59
2022/06/16 02:11:31;;;;;;;9.27;4.45;;;11.50;99.90;;;;;;5111816;28;20039;-59
2022/06/16 02:14:19;;;;;;;6.05;4.38;;;11.40;99.90;;;;;;5110311;28;20054;-58
2022/06/16 02:16:54;;;;;;;9.20;4.65;;;11.40;99.90;;;;;;5108795;28;20047;-58
2022/06/16 02:19:24;;;;;;;;;;;11.40;99.90;;;;;;5111855;28;20036;-58
2022/06/16 02:21:55;;;;;;;9.13;4.07;;;11.40;99.90;;;;;;5127696;27;19927;-58
2022/06/16 02:24:25;;;;;;;5.97;3.80;;;11.30;99.90;;;;;;5111341;28;20046;-59
2022/06/16 02:26:56;;;;;;;6.45;3.63;;;11.30;99.90;;;;;;5111656;28;20043;-58
2022/06/16 02:29:33;;;;;;;6.40;3.63;;;11.30;99.90;;;;;;5109186;28;20046;-59
2022/06/16 02:32:20;;;;;;;5.85;3.45;;;11.30;99.90;;;;;;5110580;28;20048;-59
2022/06/16 02:34:59;;;;;;;8.98;4.20;;;11.30;99.90;;;;;;5111285;28;20040;-59
2022/06/16 02:37:43;;;;;;;4.85;3.10;;;11.20;99.90;;;;;;5111355;28;20051;-58
2022/06/16 02:40:38;;;;;;;11.05;4.22;;;11.20;99.90;;;;;;5110821;28;20050;-56
2022/06/16 02:43:24;;;;;;;6.22;3.38;;;11.20;99.90;;;;;;5106962;28;20130;-58
2022/06/16 02:46:01;;;;;;;6.53;3.83;;;11.10;99.90;;;;;;5109340;28;20043;-56
2022/06/16 02:48:49;;;;;;;7.95;3.90;;;11.10;99.90;;;;;;5110359;28;20063;-59
2022/06/16 02:51:28;;;;;;;6.07;3.90;;;11.10;99.90;;;;;;5110360;28;20502;-59
2022/06/16 02:54:42;;;;;;;8.70;3.75;;;11.10;99.90;;;;;;5111135;28;20039;-58
2022/06/16 02:57:39;;;;;;;9.95;3.90;;;11.10;99.90;;;;;;5094353;28;20486;-59
2022/06/16 03:00:12;;;;;;;6.38;3.35;;;11.00;99.90;;;;;;5112163;28;20046;-58
2022/06/16 03:02:41;;;;;;;10.18;4.07;;;11.00;99.90;;;;;;5106076;28;20051;-59
2022/06/16 03:05:12;;;;;;;6.35;3.42;;;11.00;99.90;;;;;;5110305;28;20044;-58
2022/06/16 03:07:41;;;;;;;7.88;3.75;;;11.00;99.90;;;;;;5108609;28;20039;-58
2022/06/16 03:13:08;;;;;;;5.97;3.55;;;10.90;99.90;;;;;;5109774;28;20056;-58
2022/06/16 03:15:35;;;;;;;10.60;4.43;;;11.00;99.90;;;;;;5107841;28;20042;-58
2022/06/16 03:18:03;;;;;;;7.28;4.10;;;10.90;99.90;;;;;;5106330;28;20040;-59
2022/06/16 03:20:31;;;;;;;6.40;3.72;;;10.90;99.90;;;;;;5111987;28;20044;-58
2022/06/16 03:22:59;;;;;;;8.20;4.25;;;10.90;99.90;;;;;;5109711;28;20043;-58
2022/06/16 03:25:28;;;;;;;11.20;3.80;;;10.90;99.90;;;;;;5109583;28;20044;-58
2022/06/16 03:27:58;;;;;;;14.27;4.75;;;10.80;99.90;;;;;;5109706;28;20043;-57
2022/06/16 03:30:30;;;;;;;7.40;3.70;;;10.80;99.90;;;;;;5108523;28;20043;-58
2022/06/16 03:33:00;;;;;;;7.17;3.43;;;10.80;99.90;;;;;;5109199;28;20048;-58
2022/06/16 03:35:28;;;;;;;8.25;3.38;;;10.80;99.90;;;;;;5107734;28;20047;-59
2022/06/16 03:38:02;;;;;;;8.88;3.78;;;10.80;99.90;;;;;;5093406;28;20059;-59
2022/06/16 03:40:30;;;;;;;6.85;3.80;;;10.80;99.90;;;;;;5110055;28;20048;-59
2022/06/16 03:42:58;;;;;;;5.95;4.13;;;10.80;99.90;;;;;;5107673;28;20047;-58
2022/06/16 03:45:28;;;;;;;7.35;4.10;;;10.80;99.90;;;;;;5109578;28;20046;-58
2022/06/16 03:47:56;;;;;;;7.47;3.22;;;10.80;99.90;;;;;;5109799;28;20494;-57
2022/06/16 03:50:24;;;;;;;10.95;4.75;;;10.80;99.90;;;;;;5111387;28;20047;-58
2022/06/16 03:52:54;;;;;;;9.27;3.90;;;10.80;99.90;;;;;;5110391;28;20040;-58
2022/06/16 03:55:22;;;;;;;9.27;3.50;;;10.80;99.90;;;;;;5113147;28;20047;-59
2022/06/16 03:57:51;;;;;;;4.15;3.17;;;10.80;99.90;;;;;;5109870;28;20039;-58
2022/06/16 04:00:22;;;;;;;6.50;3.17;;;10.80;99.90;;;;;;5112584;28;20055;-58
2022/06/16 04:05:47;;;;;;;7.55;3.00;;;10.80;99.90;;;;;;5112929;28;20032;-59
2022/06/16 04:08:16;;;;;;;4.88;2.88;;;10.80;99.90;;;;;;5112640;28;20046;-58
2022/06/16 04:10:46;;;;;;;6.95;3.08;;;10.80;99.90;;;;;;5095443;28;20040;-58
2022/06/16 04:13:16;;;;;;;8.23;3.63;;;10.80;99.90;;;;;;5113913;28;20407;-59
2022/06/16 04:15:52;;;;;;;5.53;3.08;;;10.80;99.90;;;;;;5095369;28;20051;-58
2022/06/16 04:18:22;;;;;;;5.18;2.55;;;10.80;99.90;;;;;;5111373;28;20046;-59
2022/06/16 04:20:49;;;;;;;6.28;2.75;;;10.80;99.90;;;;;;5110895;28;20039;-59
2022/06/16 04:23:45;;;;;;;6.53;2.63;;;10.80;99.90;;;;;;5112867;28;20048;-59
2022/06/16 04:26:17;;;;;;;3.90;1.80;;;10.80;99.90;;;;;;5112621;28;20145;-59
2022/06/16 04:28:48;;;;;;;5.90;2.67;;;10.80;99.90;;;;;;5112555;28;20050;-59
2022/06/16 04:31:19;;;;;;;4.57;2.28;;;10.80;99.90;;;;;;5113089;28;20515;-59
2022/06/16 04:33:47;;;;;;;5.85;2.40;;;10.80;99.90;;;;;;5112675;28;20044;-58
2022/06/16 04:36:16;;;;;;;3.95;2.60;;;10.80;99.90;;;;;;5112159;28;20039;-59
2022/06/16 04:38:55;;;;;;;5.35;2.10;;;10.80;99.90;;;;;;5112636;28;20063;-59
2022/06/16 04:41:23;;;;;;;5.00;2.47;;;10.80;99.90;;;;;;5112856;28;20259;-59
2022/06/16 04:43:51;;;;;;;8.32;2.60;;;10.90;99.90;;;;;;5112237;28;20044;-59
2022/06/16 04:46:20;;;;;;;4.65;2.17;;;10.90;99.90;;;;;;5096369;28;20051;-58
2022/06/16 04:48:52;;;;;;;4.55;2.85;;;10.90;99.90;;;;;;5076690;28;20395;-59
2022/06/16 04:51:20;;;;;;;4.82;2.53;;;10.90;99.90;;;;;;5084537;28;20046;-58
2022/06/16 04:53:50;;;;;;;5.15;2.58;;;10.90;99.90;;;;;;5107164;28;20474;-57
2022/06/16 04:56:24;;;;;;;6.03;3.50;;;10.90;99.90;;;;;;5106679;28;20043;-60
2022/06/16 04:59:03;;;;;;;10.20;4.00;;;10.90;99.90;;;;;;5094188;28;20040;-59
2022/06/16 05:01:52;;;;;;;7.03;4.28;;;11.00;99.90;;;;;;5092796;28;20032;-57
2022/06/16 05:04:59;;;;;;;6.70;4.30;;;11.10;99.90;;;;;;5084127;28;20043;-58
2022/06/16 05:07:45;;;;;;;9.60;5.18;;;11.10;99.90;;;;;;5087338;28;20048;-58
2022/06/16 05:10:32;;;;;;;10.85;5.35;;;11.20;99.90;;;;;;5103499;28;20056;-56
2022/06/16 05:13:09;;;;;;;12.30;5.32;;;11.30;99.90;;;;;;5074492;28;20054;-59
2022/06/16 05:15:46;;;;;;;10.95;5.47;;;11.40;99.90;;;;;;5107526;28;20399;-58
2022/06/16 05:18:32;;;;;;;12.07;5.40;;;11.60;99.90;;;;;;5101996;28;20113;-58
2022/06/16 05:21:16;;;;;;;10.60;5.43;;;11.60;99.90;;;;;;5112586;28;20503;-58
2022/06/16 05:24:02;;;;;;;12.13;5.30;;;11.70;99.90;;;;;;5111955;28;20394;-57
2022/06/16 05:27:06;;;;;;;13.13;5.53;;;11.80;99.90;;;;;;5083741;28;20047;-58
2022/06/16 05:29:40;;;;;;;11.80;5.85;;;11.90;99.90;;;;;;5087458;28;20398;-60
2022/06/16 05:32:46;;;;;;;10.45;5.43;;;12.00;99.90;;;;;;5086422;28;20051;-58
2022/06/16 05:35:34;;;;;;;13.32;5.22;;;12.10;99.90;;;;;;5102841;28;20426;-58
2022/06/16 05:38:22;;;;;;;9.35;5.47;;;12.10;99.90;;;;;;5084879;28;20054;-56
2022/06/16 05:41:13;;;;;;;7.70;5.30;;;12.20;99.90;;;;;;5110811;28;20052;-57
2022/06/16 05:44:00;;;;;;;7.53;4.35;;;12.30;99.90;;;;;;5102842;28;20043;-58
2022/06/16 05:47:00;;;;;;;;;;;12.40;99.90;;;;;;5084830;27;20043;-57
2022/06/16 05:49:38;;;;;;;9.45;4.97;;;12.50;99.90;;;;;;5104155;28;19927;-57
2022/06/16 05:52:18;;;;;;;8.82;4.68;;;12.50;99.90;;;;;;5103623;28;20402;-57
2022/06/16 05:54:59;;;;;;;10.60;4.43;;;12.60;99.90;;;;;;5086652;28;20040;-56
2022/06/16 05:57:27;;;;;;;7.50;5.07;;;12.60;99.90;;;;;;5086434;28;20065;-57
2022/06/16 05:59:55;;;;;;;17.95;5.25;;;12.70;99.90;;;;;;5087814;28;20055;-58
2022/06/16 06:02:23;;;;;;;9.75;5.18;;;12.70;99.90;;;;;;5105005;28;20054;-57
2022/06/16 06:04:52;;;;;;;12.73;5.38;;;12.70;99.90;;;;;;5088833;28;20051;-57
2022/06/16 06:07:20;;;;;;;11.48;6.03;;;12.80;99.90;;;;;;5107371;28;20356;-58
2022/06/16 06:17:51;;;;;;;10.73;4.85;;;13.00;99.90;;;;;;5117680;27;20063;-57
2022/06/16 06:20:19;;;;;;;9.35;5.43;;;13.10;99.90;;;;;;5089299;28;20051;-57
2022/06/16 06:22:48;;;;;;;9.57;5.07;;;13.20;99.90;;;;;;5100198;28;20055;-58
2022/06/16 06:25:17;;;;;;;13.68;4.80;;;13.30;99.90;;;;;;5106574;28;20051;-56
2022/06/16 06:27:46;;;;;;;7.50;5.07;;;13.40;99.90;;;;;;5104076;28;20040;-58
2022/06/16 06:30:19;;;;;;;11.43;4.88;;;13.40;99.90;;;;;;5089560;28;20044;-58
2022/06/16 06:32:47;;;;;;;11.38;4.60;;;13.40;99.90;;;;;;5081725;28;20040;-57
2022/06/16 06:35:16;;;;;;;7.90;4.97;;;13.40;99.90;;;;;;5123296;27;20040;-58
2022/06/16 06:37:44;;;;;;;12.85;5.20;;;13.50;99.90;;;;;;5104609;28;20052;-57
2022/06/16 06:40:26;;;;;;;14.32;4.40;;;13.50;99.90;;;;;;5090748;28;20048;-58
2022/06/16 06:42:54;;;;;;;9.60;4.03;;;13.50;99.90;;;;;;5106497;28;20055;-58
2022/06/16 06:45:23;;;;;;;9.48;4.07;;;13.60;99.90;;;;;;5104641;28;20036;-59
2022/06/16 06:47:50;;;;;;;9.32;4.10;;;13.60;99.90;;;;;;5089928;28;20466;-56
2022/06/16 06:50:28;;;;;;;6.15;3.30;;;13.60;99.90;;;;;;5106216;28;20050;-58
2022/06/16 06:52:56;;;;;;;10.13;3.47;;;13.60;99.90;;;;;;5109413;28;20035;-58
2022/06/16 06:55:24;;;;;;;11.57;3.63;;;13.70;99.90;;;;;;5091292;28;20058;-57
2022/06/16 06:57:53;;;;;;;8.35;3.38;;;13.70;99.90;;;;;;5103936;28;20047;-57
2022/06/16 07:00:24;;;;;;;9.88;3.90;;;13.80;99.90;;;;;;5109431;28;20056;-57
2022/06/16 07:02:52;;;;;;;11.27;3.58;;;13.80;99.90;;;;;;5103870;28;20046;-58
2022/06/16 07:05:19;;;;;;;3.08;2.22;;;13.90;99.90;;;;;;5103888;28;20060;-57
2022/06/16 07:07:47;;;;;;;5.50;2.13;;;14.00;99.90;;;;;;5105903;28;20063;-58
2022/06/16 07:10:17;;;;;;;7.10;2.60;;;14.10;99.90;;;;;;5107905;28;20047;-57
2022/06/16 07:12:45;;;;;;;6.57;2.08;;;14.10;99.90;;;;;;5107414;28;20062;-57
2022/06/16 07:15:14;;;;;;;4.60;2.60;;;14.20;99.90;;;;;;5109716;28;20056;-57
2022/06/16 07:17:41;;;;;;;12.70;3.15;;;14.30;99.90;;;;;;5102507;28;20479;-58
2022/06/16 07:20:09;;;;;;;8.23;3.85;;;14.30;99.90;;;;;;5097336;28;20043;-58
2022/06/16 07:22:37;;;;;;;8.20;4.35;;;14.50;99.90;;;;;;5090932;28;20044;-59
2022/06/16 07:25:05;;;;;;;13.65;4.65;;;14.50;99.90;;;;;;5110168;28;20407;-58
2022/06/16 07:27:33;;;;;;;9.77;4.25;;;14.60;99.90;;;;;;5086932;28;20051;-56
2022/06/16 07:30:01;;;;;;;10.32;4.28;;;14.70;99.90;;;;;;5109898;28;20043;-57
2022/06/16 07:32:29;;;;;;;6.22;3.08;;;14.80;99.90;;;;;;5111892;28;20055;-56
2022/06/16 07:34:56;;;;;;;5.00;3.72;;;14.90;99.90;;;;;;5109294;28;20048;-58
2022/06/16 07:37:24;;;;;;;5.80;2.47;;;15.00;99.90;;;;;;5101387;28;20059;-56
2022/06/16 07:39:52;;;;;;;13.27;2.42;;;15.00;99.90;;;;;;5106620;28;20050;-57
2022/06/16 07:42:19;;;;;;;18.48;3.10;;;15.10;99.90;;;;;;5113016;28;20058;-57
2022/06/16 07:44:47;;;;;;;10.98;2.97;;;15.20;99.90;;;;;;5111331;28;20054;-57
2022/06/16 07:47:15;;;;;;;8.95;2.95;;;15.30;99.90;;;;;;5093322;28;20059;-58
2022/06/16 07:49:43;;;;;;;9.75;2.55;;;15.40;99.90;;;;;;5101847;28;20039;-58
2022/06/16 07:52:10;;;;;;;3.38;2.30;;;15.50;99.90;;;;;;5110923;28;20062;-56
2022/06/16 07:54:39;;;;;;;7.43;2.83;;;15.60;99.90;;;;;;5112841;28;20583;-57
2022/06/16 07:57:22;;;;;;;7.25;2.58;;;15.70;99.90;;;;;;5109951;28;20050;-56
2022/06/16 07:59:57;;;;;;;7.60;2.33;;;15.80;99.90;;;;;;5102287;28;20052;-57
2022/06/16 08:02:26;;;;;;;;;;;15.90;99.90;;;;;;5103642;28;20035;-56
2022/06/16 08:04:54;;;;;;;7.00;2.38;;;16.00;99.90;;;;;;5102811;28;20377;-57
2022/06/16 08:07:22;;;;;;;5.50;2.63;;;16.10;99.90;;;;;;5107628;28;20406;-58
2022/06/16 08:09:50;;;;;;;7.95;2.58;;;16.20;99.90;;;;;;5103230;28;20043;-58
2022/06/16 08:12:19;;;;;;;4.45;1.70;;;16.30;99.90;;;;;;5108079;28;20055;-56
2022/06/16 08:14:48;;;;;;;6.82;1.80;;;16.50;99.90;;;;;;5110007;28;20039;-58
2022/06/16 08:17:27;;;;;;;9.55;2.67;;;16.50;99.90;;;;;;5108588;28;20396;-58
2022/06/16 08:19:55;;;;;;;10.10;1.80;;;16.60;99.90;;;;;;5106826;28;20047;-57
2022/06/16 08:22:25;;;;;;;4.97;2.40;;;16.70;99.90;;;;;;5109812;27;20039;-58
2022/06/16 08:24:53;;;;;;;4.38;1.73;;;16.80;99.90;;;;;;5110102;28;20514;-58
2022/06/16 08:27:32;;;;;;;5.57;1.40;;;16.90;99.90;;;;;;5110694;28;20678;-58
2022/06/16 08:30:01;;;;;;;5.47;1.70;;;17.00;99.90;;;;;;5107709;28;20422;-57
2022/06/16 08:32:29;;;;;;;4.32;1.88;;;17.20;99.90;;;;;;5110505;28;20048;-59
2022/06/16 08:34:57;;;;;;;4.30;1.45;;;17.30;99.90;;;;;;5105247;28;20047;-57
2022/06/16 08:37:27;;;;;;;8.00;1.70;;;17.40;99.90;;;;;;5102937;28;20048;-58
2022/06/16 08:39:56;;;;;;;5.25;1.63;;;17.50;99.90;;;;;;5093705;28;20051;-58
2022/06/16 08:42:39;;;;;;;8.02;1.80;;;17.70;99.90;;;;;;5106677;28;20054;-58
2022/06/16 08:45:21;;;;;;;5.72;1.77;;;17.80;99.90;;;;;;5107325;28;20051;-58
2022/06/16 08:48:11;;;;;;;5.88;1.83;;;18.00;99.90;;;;;;5106940;28;20044;-58
2022/06/16 08:50:50;;;;;;;6.32;1.30;;;18.10;99.90;;;;;;5110323;28;20047;-59
2022/06/16 08:53:54;;;;;;;4.55;1.30;;;18.30;99.90;;;;;;5110508;28;20046;-57
2022/06/16 08:56:34;;;;;;;2.45;1.30;;;18.40;99.90;;;;;;5108806;28;20052;-58
2022/06/16 08:59:27;;;;;;;7.40;1.38;;;18.50;99.90;;;;;;5097154;28;20044;-57
2022/06/16 09:02:34;;;;;;;2.63;1.00;;;18.60;99.90;;;;;;5098080;28;20039;-58
2022/06/16 09:05:33;;;;;;;4.47;0.85;;;18.70;99.90;;;;;;5065710;28;20404;-58
2022/06/16 09:08:19;;;;;;;7.20;1.13;;;18.90;99.90;;;;;;5099214;28;20055;-57
2022/06/16 09:10:49;;;;;;;3.60;1.10;;;19.00;99.90;;;;;;5109505;28;20044;-57
2022/06/16 09:13:22;;;;;;;3.38;1.15;;;19.20;99.90;;;;;;5108012;28;20040;-58
2022/06/16 09:16:16;;;;;;;5.03;1.27;;;19.30;99.90;;;;;;5109280;28;20063;-58
2022/06/16 09:19:02;;;;;;;2.85;1.20;;;19.40;99.90;;;;;;5106964;28;20497;-57
2022/06/16 09:21:36;;;;;;;5.28;1.40;;;19.60;99.90;;;;;;5100327;28;20056;-58
2022/06/16 09:24:39;;;;;;;3.90;1.50;;;19.70;99.90;;;;;;5103652;28;20039;-59
2022/06/16 09:27:26;;;;;;;3.92;1.30;;;19.80;99.50;;;;;;5099040;28;20044;-58
2022/06/16 09:30:08;;;;;;;3.20;1.27;;;19.90;98.30;;;;;;5099047;28;20042;-57
2022/06/16 09:32:59;;;;;;;2.58;1.02;;;19.90;98.10;;;;;;5102767;28;20044;-57
2022/06/16 09:35:51;;;;;;;4.75;1.48;;;20.00;98.60;;;;;;5104298;28;20051;-59
2022/06/16 09:38:18;;;;;;;4.40;1.80;;;20.10;98.50;;;;;;5100944;28;20048;-58
2022/06/16 09:44:13;;;;;;;4.85;1.80;;;20.10;98.00;;;;;;5101702;28;20413;-59
2022/06/16 09:46:47;;;;;;;5.90;1.55;;;20.20;97.60;;;;;;5103842;28;20383;-57
2022/06/16 09:49:24;;;;;;;6.72;1.50;;;20.20;97.70;;;;;;5102988;28;20047;-58
2022/06/16 09:52:26;;;;;;;3.10;1.50;;;20.30;97.70;;;;;;5089159;28;20040;-58
2022/06/16 09:55:00;;;;;;;4.15;1.40;;;20.40;97.10;;;;;;5103876;28;20032;-58
2022/06/16 09:57:55;;;;;;;4.43;1.65;;;20.50;97.10;;;;;;5099306;27;20059;-59
2022/06/16 10:00:25;;;;;;;5.10;1.52;;;20.60;97.00;;;;;;5101374;28;20607;-57
2022/06/16 10:02:58;;;;;;;4.15;1.33;;;20.80;96.60;;;;;;5095687;28;20047;-57
2022/06/16 10:05:58;;;;;;;6.57;1.52;;;20.90;96.70;;;;;;5109394;28;20050;-57
2022/06/16 10:08:41;;;;;;;7.22;1.50;;;21.00;96.50;;;;;;5081709;28;20395;-57
2022/06/16 10:11:26;;;;;;;3.20;2.05;;;21.20;95.50;;;;;;5103816;28;20051;-57
2022/06/16 10:14:05;;;;;;;6.47;1.30;;;21.30;95.10;;;;;;5104703;28;20055;-58
2022/06/16 10:16:52;;;;;;;4.05;1.77;;;21.40;94.90;;;;;;5103398;28;20036;-58
2022/06/16 10:19:23;;;;;;;5.40;1.30;;;21.40;93.40;;;;;;5101328;28;20044;-57
2022/06/16 10:22:00;;;;;;;4.93;1.40;;;21.40;93.60;;;;;;5107307;28;20399;-56
2022/06/16 10:24:58;;;;;;;6.30;1.10;;;21.40;93.60;;;;;;5111560;27;20402;-58
2022/06/16 10:28:00;;;;;;;0.93;0.80;;;21.50;93.10;;;;;;5091342;28;20055;-57
2022/06/16 10:30:36;;;;;;;4.72;1.10;;;21.60;93.00;;;;;;5096609;28;20403;-58
2022/06/16 10:33:25;;;;;;;2.08;0.90;;;21.90;91.50;;;;;;5096330;28;20046;-59
2022/06/16 10:35:59;;;;;;;3.35;1.27;;;22.00;91.10;;;;;;5099704;28;20044;-57
2022/06/16 10:38:31;;;;;;;3.40;0.80;;;22.00;90.70;;;;;;5099447;28;20407;-57
2022/06/16 10:41:04;;;;;;;2.53;0.60;;;22.00;90.70;;;;;;5093477;28;20530;-58
2022/06/16 10:43:41;;;;;;;3.60;1.27;;;22.20;89.30;;;;;;5098765;28;20047;-58
2022/06/16 10:46:19;;;;;;;2.08;0.90;;;22.30;88.50;;;;;;5094926;28;20410;-59
2022/06/16 10:48:54;;;;;;;14.35;0.90;;;22.40;86.40;;;;;;5108341;28;20052;-58
2022/06/16 10:51:25;;;;;;;2.67;1.02;;;22.40;84.90;;;;;;5110918;28;20278;-59
2022/06/16 10:54:34;;;;;;;0.85;0.55;;;22.50;81.60;;;;;;5104823;28;20047;-59
2022/06/16 10:57:18;;;;;;;3.25;0.90;;;22.60;80.90;;;;;;5084448;28;20056;-59
2022/06/16 10:59:56;;;;;;;7.93;1.45;;;22.80;79.70;;;;;;5096950;28;20417;-59
2022/06/16 11:02:28;;;;;;;4.13;1.40;;;22.90;80.30;;;;;;5088100;28;20557;-58
2022/06/16 11:05:10;;;;;;;4.18;1.83;;;23.00;80.70;;;;;;5107877;28;20042;-58
2022/06/16 11:07:41;;;;;;;3.78;1.85;;;23.10;81.90;;;;;;5105882;28;20040;-58
2022/06/16 11:10:16;;;;;;;5.38;1.80;;;23.30;82.30;;;;;;5105633;28;20047;-59
2022/06/16 11:12:48;;;;;;;3.45;1.70;;;23.40;83.40;;;;;;5104679;28;20048;-60
2022/06/16 11:15:26;;;;;;;4.15;2.03;;;23.60;83.90;;;;;;5095338;28;20050;-59
2022/06/16 11:17:58;;;;;;;4.07;1.88;;;23.60;82.50;;;;;;5099993;28;20505;-58
2022/06/16 11:20:32;;;;;;;3.28;1.60;;;23.70;83.00;;;;;;5103488;28;20046;-59
2022/06/16 11:23:01;;;;;;;2.33;1.50;;;23.90;84.10;;;;;;5099702;28;20058;-58
2022/06/16 11:25:35;;;;;;;6.07;2.00;;;24.10;84.20;;;;;;5096002;28;20040;-59
2022/06/16 11:28:19;;;;;;;3.45;1.70;;;24.20;82.20;;;;;;5093005;28;20040;-58
2022/06/16 11:30:49;;;;;;;4.65;1.90;;;24.40;82.50;;;;;;5095567;28;20044;-58
2022/06/16 11:36:37;;;;;;;4.82;1.38;;;24.50;82.50;;;;;;5090481;28;20051;-59
2022/06/16 11:39:46;;;;;;;7.20;1.45;;;24.50;80.90;;;;;;5102999;28;20047;-58
2022/06/16 11:42:48;;;;;;;2.42;1.40;;;24.50;80.40;;;;;;5095493;28;20055;-59
2022/06/16 11:45:18;;;;;;;3.55;1.30;;;24.50;79.20;;;;;;5109547;28;20055;-58
2022/06/16 11:48:02;;;;;;;2.95;1.40;;;24.40;79.70;;;;;;5096165;28;20052;-58
2022/06/16 11:51:25;;;;;;;4.13;1.30;;;24.40;79.20;;;;;;5105684;28;20054;-58
2022/06/16 11:54:13;;;;;;;5.60;1.33;;;24.20;78.90;;;;;;5082462;28;20399;-58
2022/06/16 11:56:51;;;;;;;4.60;1.60;;;23.90;78.90;;;;;;5104155;28;20040;-58
2022/06/16 11:59:47;;;;;;;1.45;0.98;;;23.80;79.90;;;;;;5095128;28;20047;-59
2022/06/16 12:02:34;;;;;;;2.28;0.90;;;23.70;79.40;;;;;;5095917;28;20043;-58
2022/06/16 12:05:27;;;;;;;2.15;0.80;;;23.60;79.90;;;;;;5094737;28;20043;-58
2022/06/16 12:08:10;;;;;;;3.88;1.02;;;23.80;80.70;;;;;;5091065;28;20518;-58
2022/06/16 12:11:00;;;;;;;1.00;1.00;;;24.30;79.00;;;;;;5097809;28;20359;-58
2022/06/16 12:13:49;;;;;;;3.60;0.88;;;24.80;78.00;;;;;;5105728;28;20044;-58
2022/06/16 12:16:52;;;;;;;4.93;0.98;;;25.30;75.80;;;;;;5096130;28;20044;-58
2022/06/16 12:19:48;;;;;;;6.70;1.17;;;25.80;74.50;;;;;;5095873;28;20634;-58
2022/06/16 12:22:33;;;;;;;1.90;1.30;;;26.20;73.90;;;;;;5096304;28;20055;-58
2022/06/16 12:25:05;;;;;;;2.20;0.98;;;26.50;72.10;;;;;;5099359;28;20059;-58
2022/06/16 12:27:46;;;;;;;2.10;1.23;;;26.60;71.00;;;;;;5102032;28;20055;-58
2022/06/16 12:30:23;;;;;;;4.35;1.23;;;26.50;69.60;;;;;;5098283;28;20475;-59
2022/06/16 12:33:13;;;;;;;2.58;1.15;;;26.30;69.80;;;;;;5092623;28;20044;-58
2022/06/16 12:35:44;;;;;;;;;;;26.30;70.30;;;;;;5098506;28;20039;-58
2022/06/16 12:38:25;;;;;;;2.00;0.95;;;26.30;69.80;;;;;;5097911;28;19923;-58
2022/06/16 12:41:00;;;;;;;4.00;1.05;;;26.40;69.00;;;;;;5104979;28;20055;-58
2022/06/16 12:43:35;;;;;;;3.47;0.82;;;26.50;69.00;;;;;;5096598;28;20487;-58
2022/06/16 12:46:06;;;;;;;5.43;1.25;;;26.60;67.80;;;;;;5101395;28;20040;-58
2022/06/16 12:48:48;;;;;;;0.82;0.80;;;26.90;68.50;;;;;;5106587;28;20063;-58
2022/06/16 12:51:21;;;;;;;6.30;0.90;;;27.20;67.10;;;;;;5105270;28;20047;-59
2022/06/16 12:53:54;;;;;;;0.93;0.82;;;27.60;65.00;;;;;;5110964;28;20043;-58
2022/06/16 12:59:47;;;;;;;4.18;0.60;;;28.10;62.80;;;;;;5105021;28;20023;-58
2022/06/16 13:02:20;;;;;;;3.28;0.80;;;28.30;62.10;;;;;;5110223;28;20043;-58
2022/06/16 13:04:51;;;;;;;1.85;0.60;;;28.30;61.40;;;;;;5111475;28;20046;-57
2022/06/16 13:07:23;;;;;;;2.88;0.63;;;28.30;60.50;;;;;;5098452;28;20055;-58
2022/06/16 13:09:57;;;;;;;2.03;0.65;;;28.30;59.40;;;;;;5105954;28;20495;-59
2022/06/16 13:12:32;;;;;;;2.58;0.60;;;28.30;58.30;;;;;;5103789;28;20052;-59
2022/06/16 13:15:23;;;;;;;2.67;0.88;;;28.20;58.30;;;;;;5102125;28;21782;-59
2022/06/16 13:18:15;;;;;;;5.72;0.80;;;28.10;56.60;;;;;;5097326;28;20043;-58
2022/06/16 13:20:48;;;;;;;9.38;1.45;;;27.90;57.60;;;;;;5108952;28;20513;-58
2022/06/16 13:23:30;;;;;;;2.47;0.80;;;28.00;59.80;;;;;;5109421;28;20047;-58
2022/06/16 13:26:16;;;;;;;1.92;0.95;;;28.40;59.80;;;;;;5107980;28;20043;-60
2022/06/16 13:29:15;;;;;;;4.05;1.77;;;28.90;58.10;;;;;;5108226;28;20040;-59
2022/06/16 13:31:43;;;;;;;5.97;1.08;;;29.20;57.20;;;;;;5091394;28;20052;-59
2022/06/16 13:34:17;;;;;;;3.95;1.67;;;29.50;58.50;;;;;;5100185;28;20036;-58
2022/06/16 13:36:44;;;;;;;5.00;1.25;;;29.90;58.10;;;;;;5110565;28;20039;-58
2022/06/16 13:39:49;;;;;;;3.35;1.30;;;30.10;57.30;;;;;;5107339;28;20404;-59
2022/06/16 13:42:20;;;;;;;4.07;1.20;;;30.10;57.00;;;;;;5093538;28;20042;-59
2022/06/16 13:45:09;;;;;;;2.47;1.30;;;30.30;57.30;;;;;;5107502;28;20052;-59
2022/06/16 13:47:45;;;;;;;2.75;0.80;;;30.20;55.60;;;;;;5098887;28;20843;-58
2022/06/16 13:50:21;;;;;;;2.97;0.80;;;29.80;54.70;;;;;;5096396;28;20048;-59
2022/06/16 13:53:04;;;;;;;4.70;1.15;;;29.40;55.30;;;;;;5108686;28;20050;-59
2022/06/16 13:55:34;;;;;;;8.10;1.25;;;29.20;56.20;;;;;;5103304;28;20044;-58
2022/06/16 13:58:18;;;;;;;4.05;1.10;;;29.10;57.30;;;;;;5102646;28;20070;-58
2022/06/16 14:01:14;;;;;;;3.20;1.13;;;29.30;57.00;;;;;;5109560;28;20046;-58
2022/06/16 14:04:01;;;;;;;3.10;1.10;;;29.80;56.60;;;;;;5110386;28;20050;-58
2022/06/16 14:06:39;;;;;;;3.53;1.05;;;30.20;55.00;;;;;;5108142;28;20499;-59